« Back
NWS Peachtree City, Ga » Text Product » AHN Terminal Aerodrome Forecast

Printer-friendly Version
Current Version              Previous Versions:   1  2  3  4  5  6  7  8  9  

Terminal Aerodrome Forecast

FTUS42 KFFC 271740
KAHN 271740Z 2718/2818 07007KT P6SM FEW035 SCT250
     FM280200 00000KT P6SM SCT200
     FM280700 00000KT 5SM BR SCT015 SCT200
     FM281500 VRB03KT P6SM SCT025 SCT150=

USA.gov is the U.S. government's official web portal to all federal, state and local government web resources and services.